Time;durP1;ratioP1;P1;durP2;ratioP2;P2;SDS_P1;SDS_P2;PMS_P1;PMS_P2;Temp;Humidity;BMP_temperature;BMP_pressure;BME280_temperature;BME280_humidity;BME280_pressure;Samples;Min_cycle;Max_cycle;Signal;HPM_P1;HPM_P2
2020/12/16 00:00:32;;;;;;;69.20;37.15;;;;;;;;;;2074363;28;20280;-61
2020/12/16 00:01:32;;;;;;;65.38;38.88;;;;;;;;;;2074421;28;20247;-62
2020/12/16 00:02:32;;;;;;;65.20;37.20;;;;;;;;;;2074589;28;20189;-60
2020/12/16 00:03:33;;;;;;;65.53;37.17;;;;;;;;;;2074181;28;20177;-61
2020/12/16 00:04:33;;;;;;;60.53;36.33;;;;;;;;;;2065977;28;20189;-62
2020/12/16 00:05:33;;;;;;;59.10;36.03;;;;;;;;;;2066024;28;20177;-58
2020/12/16 00:06:34;;;;;;;65.75;38.30;;;;;;;;;;2075402;28;20192;-58
2020/12/16 00:07:34;;;;;;;60.63;34.92;;;;;;;;;;2066473;28;20532;-61
2020/12/16 00:08:34;;;;;;;59.08;35.03;;;;;;;;;;2067029;28;20665;-60
2020/12/16 00:09:35;;;;;;;61.08;36.63;;;;;;;;;;2082043;28;20176;-58
2020/12/16 00:10:35;;;;;;;55.42;35.20;;;;;;;;;;2075986;28;20208;-60
2020/12/16 00:11:35;;;;;;;60.92;36.65;;;;;;;;;;2073991;28;20173;-62
2020/12/16 00:12:39;;;;;;;51.78;33.03;;;;;;;;;;2074534;28;20249;-59
2020/12/16 00:13:39;;;;;;;57.00;33.75;;;;;;;;;;2074485;28;20177;-61
2020/12/16 00:14:42;;;;;;;63.40;37.75;;;;;;;;;;2074026;28;20173;-59
2020/12/16 00:15:44;;;;;;;63.75;37.83;;;;;;;;;;2074694;28;20207;-61
2020/12/16 00:16:44;;;;;;;66.80;39.15;;;;;;;;;;2074210;28;20185;-60
2020/12/16 00:17:44;;;;;;;69.95;38.53;;;;;;;;;;2073906;28;20185;-62
2020/12/16 00:18:45;;;;;;;64.53;37.13;;;;;;;;;;2074017;28;20179;-62
2020/12/16 00:19:45;;;;;;;62.67;36.15;;;;;;;;;;2077151;28;20180;-63
2020/12/16 00:20:45;;;;;;;64.03;36.75;;;;;;;;;;2066576;28;20280;-61
2020/12/16 00:21:45;;;;;;;65.85;37.13;;;;;;;;;;2073641;28;20214;-59
2020/12/16 00:22:46;;;;;;;57.65;34.58;;;;;;;;;;2073643;28;20223;-59
2020/12/16 00:23:46;;;;;;;60.20;36.80;;;;;;;;;;2070868;28;20254;-60
2020/12/16 00:24:46;;;;;;;61.72;35.83;;;;;;;;;;2074272;28;20202;-60
2020/12/16 00:25:46;;;;;;;61.15;36.20;;;;;;;;;;2075239;28;20268;-58
2020/12/16 00:26:47;;;;;;;60.72;36.60;;;;;;;;;;2073514;28;20193;-58
2020/12/16 00:27:47;;;;;;;67.07;37.92;;;;;;;;;;2060758;28;20259;-61
2020/12/16 00:28:47;;;;;;;62.65;36.85;;;;;;;;;;2064949;28;20864;-60
2020/12/16 00:31:00;;;;;;;60.30;34.70;;;;;;;;;;2080068;28;20222;-61
2020/12/16 00:32:02;;;;;;;61.95;35.17;;;;;;;;;;2083043;28;20547;-62
2020/12/16 00:33:02;;;;;;;57.38;32.78;;;;;;;;;;2083124;28;20193;-60
2020/12/16 00:34:04;;;;;;;62.95;37.58;;;;;;;;;;2085998;28;20537;-61
2020/12/16 00:35:05;;;;;;;63.03;36.88;;;;;;;;;;2076465;28;20733;-61
2020/12/16 00:36:06;;;;;;;62.38;34.78;;;;;;;;;;2082322;28;20161;-61
2020/12/16 00:37:06;;;;;;;61.30;34.40;;;;;;;;;;2082084;28;20711;-61
2020/12/16 00:38:06;;;;;;;57.47;34.97;;;;;;;;;;2074773;28;20181;-61
2020/12/16 00:39:07;;;;;;;55.30;34.63;;;;;;;;;;2080296;28;20660;-63
2020/12/16 00:40:09;;;;;;;57.83;38.15;;;;;;;;;;2084069;28;20240;-61
2020/12/16 00:41:09;;;;;;;60.20;35.60;;;;;;;;;;2091240;28;20271;-62
2020/12/16 00:42:10;;;;;;;65.45;37.08;;;;;;;;;;2091830;28;20179;-63
2020/12/16 00:43:10;;;;;;;65.85;37.10;;;;;;;;;;2082269;28;20180;-62
2020/12/16 00:44:10;;;;;;;56.28;35.72;;;;;;;;;;2074472;28;20571;-60
2020/12/16 00:45:10;;;;;;;62.53;37.10;;;;;;;;;;2081977;28;20255;-61
2020/12/16 00:46:12;;;;;;;60.53;36.05;;;;;;;;;;2082377;28;20202;-63
2020/12/16 00:47:12;;;;;;;63.88;37.28;;;;;;;;;;2090984;28;20187;-61
2020/12/16 00:48:13;;;;;;;63.60;35.00;;;;;;;;;;2088838;28;20160;-62
2020/12/16 00:49:13;;;;;;;58.72;34.50;;;;;;;;;;2082244;28;20190;-64
2020/12/16 00:50:13;;;;;;;61.72;35.53;;;;;;;;;;2074392;28;20217;-61
2020/12/16 00:51:14;;;;;;;50.35;31.75;;;;;;;;;;2082305;28;20172;-62
2020/12/16 00:52:15;;;;;;;57.40;33.92;;;;;;;;;;2081352;28;20180;-61
2020/12/16 00:53:15;;;;;;;57.85;34.40;;;;;;;;;;2082555;28;20629;-60
2020/12/16 00:54:22;;;;;;;62.15;35.42;;;;;;;;;;2082236;28;20172;-60
2020/12/16 00:55:23;;;;;;;55.30;33.00;;;;;;;;;;2082412;28;20164;-62
2020/12/16 00:56:23;;;;;;;54.25;34.38;;;;;;;;;;2082652;28;20251;-62
2020/12/16 00:57:23;;;;;;;50.40;32.75;;;;;;;;;;2091031;28;20163;-63
2020/12/16 00:58:23;;;;;;;55.90;35.75;;;;;;;;;;2091756;28;20213;-62
2020/12/16 00:59:27;;;;;;;56.70;33.65;;;;;;;;;;2082146;28;20168;-61
2020/12/16 01:00:27;;;;;;;55.50;33.05;;;;;;;;;;2082492;28;20245;-62
2020/12/16 01:01:32;;;;;;;56.45;33.35;;;;;;;;;;2082696;28;20177;-62
2020/12/16 01:02:34;;;;;;;57.00;34.88;;;;;;;;;;2074356;28;20301;-60
2020/12/16 01:03:34;;;;;;;53.63;33.65;;;;;;;;;;2082487;28;20295;-62
2020/12/16 01:04:35;;;;;;;53.70;33.85;;;;;;;;;;2074123;28;20232;-61
2020/12/16 01:05:36;;;;;;;49.80;32.55;;;;;;;;;;2082091;28;20207;-61
2020/12/16 01:06:37;;;;;;;53.63;33.45;;;;;;;;;;2082213;28;20250;-62
2020/12/16 01:07:38;;;;;;;53.70;33.45;;;;;;;;;;2082420;28;20176;-62
2020/12/16 01:08:41;;;;;;;53.00;34.30;;;;;;;;;;2091706;28;20181;-62
2020/12/16 01:09:43;;;;;;;51.42;32.45;;;;;;;;;;2082299;28;20558;-61
2020/12/16 01:10:44;;;;;;;58.88;35.83;;;;;;;;;;2082361;28;20188;-61
2020/12/16 01:11:45;;;;;;;51.20;33.30;;;;;;;;;;2082248;28;20255;-62
2020/12/16 01:12:47;;;;;;;54.80;35.38;;;;;;;;;;2082748;28;20824;-61
2020/12/16 01:13:47;;;;;;;53.03;32.40;;;;;;;;;;2074438;28;20184;-61
2020/12/16 01:14:48;;;;;;;56.40;34.60;;;;;;;;;;2082623;28;20188;-62
2020/12/16 01:15:49;;;;;;;62.58;35.70;;;;;;;;;;2082496;28;20172;-62
2020/12/16 01:16:49;;;;;;;58.72;33.95;;;;;;;;;;2082804;28;20192;-61
2020/12/16 01:17:54;;;;;;;53.25;33.58;;;;;;;;;;2090764;28;20162;-61
2020/12/16 01:19:06;;;;;;;54.22;34.65;;;;;;;;;;2082674;28;20172;-62
2020/12/16 01:20:10;;;;;;;56.40;34.00;;;;;;;;;;2081717;28;20562;-62
2020/12/16 01:21:10;;;;;;;53.67;34.63;;;;;;;;;;2086281;28;20206;-62
2020/12/16 01:22:20;;;;;;;53.13;33.67;;;;;;;;;;2076297;28;20661;-63
2020/12/16 01:23:20;;;;;;;60.67;36.03;;;;;;;;;;2085143;28;20262;-62
2020/12/16 01:24:26;;;;;;;59.97;35.17;;;;;;;;;;2075698;28;21093;-61
2020/12/16 01:25:27;;;;;;;65.28;38.13;;;;;;;;;;2074271;28;20177;-62
2020/12/16 01:26:36;;;;;;;70.00;39.70;;;;;;;;;;2081049;28;20184;-62
2020/12/16 01:27:36;;;;;;;60.55;38.25;;;;;;;;;;2065759;28;20646;-63
2020/12/16 01:28:36;;;;;;;65.57;38.22;;;;;;;;;;2073455;28;20175;-63
2020/12/16 01:29:41;;;;;;;67.03;37.65;;;;;;;;;;2076200;28;20785;-59
2020/12/16 01:30:42;;;;;;;67.38;38.20;;;;;;;;;;2081822;28;20262;-63
2020/12/16 01:31:44;;;;;;;65.60;39.13;;;;;;;;;;2088985;28;20249;-59
2020/12/16 01:32:52;;;;;;;71.50;39.50;;;;;;;;;;2080287;28;20736;-62
2020/12/16 01:33:54;;;;;;;65.43;38.35;;;;;;;;;;2073471;28;20196;-61
2020/12/16 01:35:12;;;;;;;63.40;37.55;;;;;;;;;;2072828;28;20234;-61
2020/12/16 01:36:14;;;;;;;60.47;35.25;;;;;;;;;;2072721;28;20161;-62
2020/12/16 01:37:16;;;;;;;61.20;36.67;;;;;;;;;;2073202;28;20181;-61
2020/12/16 01:38:22;;;;;;;68.40;38.47;;;;;;;;;;2077370;28;20217;-61
2020/12/16 01:39:26;;;;;;;62.63;36.47;;;;;;;;;;2074071;28;20183;-62
2020/12/16 01:40:26;;;;;;;69.03;39.65;;;;;;;;;;2081706;28;20204;-61
2020/12/16 01:41:26;;;;;;;68.45;40.92;;;;;;;;;;2081354;28;20184;-60
2020/12/16 01:42:27;;;;;;;73.53;40.85;;;;;;;;;;2073905;28;20165;-62
2020/12/16 01:43:33;;;;;;;72.00;40.13;;;;;;;;;;2073435;28;20247;-61
2020/12/16 01:44:33;;;;;;;72.77;41.53;;;;;;;;;;2074009;28;20185;-61
2020/12/16 01:45:37;;;;;;;75.60;40.97;;;;;;;;;;2073208;28;20173;-60
2020/12/16 01:46:44;;;;;;;75.17;42.70;;;;;;;;;;2079238;28;20591;-62
2020/12/16 01:47:44;;;;;;;76.35;40.05;;;;;;;;;;2066073;28;20177;-62
2020/12/16 01:48:50;;;;;;;67.53;40.45;;;;;;;;;;2073129;28;20212;-60
2020/12/16 01:49:51;;;;;;;75.78;41.47;;;;;;;;;;2081393;28;20180;-61
2020/12/16 01:50:52;;;;;;;72.25;40.58;;;;;;;;;;2077258;28;20785;-61
2020/12/16 01:51:54;;;;;;;71.30;39.57;;;;;;;;;;2079926;28;20180;-62
2020/12/16 01:52:56;;;;;;;72.75;40.65;;;;;;;;;;2080124;28;20196;-60
2020/12/16 01:54:13;;;;;;;74.07;39.28;;;;;;;;;;2085510;28;20176;-62
2020/12/16 01:55:14;;;;;;;67.57;38.67;;;;;;;;;;2086633;28;20175;-58
2020/12/16 01:56:27;;;;;;;70.15;39.17;;;;;;;;;;2085873;28;20174;-60
2020/12/16 01:57:45;;;;;;;77.33;42.30;;;;;;;;;;2080092;28;20172;-62
2020/12/16 01:58:51;;;;;;;88.27;44.77;;;;;;;;;;2073970;28;20239;-62
2020/12/16 01:59:52;;;;;;;93.80;46.73;;;;;;;;;;2074500;28;20214;-63
2020/12/16 02:01:04;;;;;;;79.60;43.10;;;;;;;;;;2072061;28;20542;-60
2020/12/16 02:02:07;;;;;;;82.80;42.73;;;;;;;;;;2083927;28;20164;-62
2020/12/16 02:03:07;;;;;;;88.88;42.97;;;;;;;;;;2067185;28;20256;-60
2020/12/16 02:04:24;;;;;;;81.88;43.13;;;;;;;;;;2070573;28;20177;-61
2020/12/16 02:05:25;;;;;;;84.93;41.67;;;;;;;;;;2077118;28;20177;-60
2020/12/16 02:06:32;;;;;;;82.07;39.45;;;;;;;;;;2088997;28;20183;-60
2020/12/16 02:07:33;;;;;;;81.85;40.75;;;;;;;;;;2082809;28;20168;-62
2020/12/16 02:08:35;;;;;;;80.43;40.37;;;;;;;;;;2081801;28;20180;-61
2020/12/16 02:09:39;;;;;;;82.55;40.22;;;;;;;;;;2081558;28;20186;-60
2020/12/16 02:10:40;;;;;;;74.53;40.60;;;;;;;;;;2081907;28;20204;-63
2020/12/16 02:11:41;;;;;;;81.23;40.63;;;;;;;;;;2073305;28;20556;-61
2020/12/16 02:12:54;;;;;;;79.55;42.88;;;;;;;;;;2080804;28;20176;-61
2020/12/16 02:13:54;;;;;;;81.90;40.27;;;;;;;;;;2083419;28;20173;-61
2020/12/16 02:14:54;;;;;;;84.72;40.85;;;;;;;;;;2087086;28;20825;-63
2020/12/16 02:15:56;;;;;;;75.67;39.97;;;;;;;;;;2078121;28;20303;-61
2020/12/16 02:16:58;;;;;;;77.40;40.77;;;;;;;;;;2087344;28;20172;-60
2020/12/16 02:17:59;;;;;;;85.65;39.97;;;;;;;;;;2087315;28;20200;-63
2020/12/16 02:18:59;;;;;;;76.50;39.10;;;;;;;;;;2080407;28;20485;-61
2020/12/16 02:20:11;;;;;;;72.03;37.33;;;;;;;;;;2090353;28;20329;-60
2020/12/16 02:21:17;;;;;;;74.03;37.90;;;;;;;;;;2081503;28;20176;-58
2020/12/16 02:22:18;;;;;;;73.97;37.60;;;;;;;;;;2078875;28;20207;-60
2020/12/16 02:23:18;;;;;;;73.60;38.27;;;;;;;;;;2088034;28;20259;-63
2020/12/16 02:24:21;;;;;;;84.03;41.70;;;;;;;;;;2084531;28;20259;-62
2020/12/16 02:25:22;;;;;;;80.30;40.37;;;;;;;;;;2072526;28;20185;-62
2020/12/16 02:26:32;;;;;;;78.03;39.87;;;;;;;;;;2077980;28;20175;-59
2020/12/16 02:27:38;;;;;;;76.90;40.70;;;;;;;;;;2071523;28;20165;-58
2020/12/16 02:28:45;;;;;;;89.75;44.70;;;;;;;;;;2068841;28;20181;-60
2020/12/16 02:29:45;;;;;;;94.70;45.10;;;;;;;;;;2075599;28;20219;-60
2020/12/16 02:31:05;;;;;;;110.77;48.77;;;;;;;;;;2079954;28;20214;-60
2020/12/16 02:32:15;;;;;;;113.90;48.13;;;;;;;;;;2079600;28;20184;-61
2020/12/16 02:33:15;;;;;;;91.50;44.67;;;;;;;;;;2079740;28;20198;-62
2020/12/16 02:34:34;;;;;;;91.03;43.80;;;;;;;;;;2083301;28;20549;-60
2020/12/16 02:35:37;;;;;;;93.40;44.47;;;;;;;;;;2088079;28;20888;-61
2020/12/16 02:36:46;;;;;;;91.83;44.13;;;;;;;;;;2075103;28;20164;-61
2020/12/16 02:38:08;;;;;;;87.90;39.90;;;;;;;;;;2085411;28;20730;-62
2020/12/16 02:39:09;;;;;;;83.03;42.50;;;;;;;;;;2075494;28;20172;-62
2020/12/16 02:40:30;;;;;;;87.00;42.50;;;;;;;;;;2087521;28;20204;-61
2020/12/16 02:41:31;;;;;;;94.83;44.43;;;;;;;;;;2087815;28;20175;-63
2020/12/16 02:42:32;;;;;;;92.80;43.47;;;;;;;;;;2086232;28;20183;-63
2020/12/16 02:43:33;;;;;;;93.77;42.17;;;;;;;;;;2087242;28;20172;-61
2020/12/16 02:44:34;;;;;;;86.87;38.67;;;;;;;;;;2075780;28;20218;-62
2020/12/16 02:45:44;;;;;;;80.17;39.50;;;;;;;;;;2065899;28;20616;-60
2020/12/16 02:46:47;;;;;;;80.60;41.80;;;;;;;;;;2070100;28;20207;-58
2020/12/16 02:47:48;;;;;;;95.77;44.97;;;;;;;;;;2079982;28;20235;-61
2020/12/16 02:48:54;;;;;;;98.23;46.13;;;;;;;;;;2069795;28;20185;-60
2020/12/16 02:49:54;;;;;;;103.77;48.27;;;;;;;;;;2072813;28;20195;-61
2020/12/16 02:50:55;;;;;;;102.60;47.90;;;;;;;;;;2083629;28;20199;-61
2020/12/16 02:51:58;;;;;;;127.43;51.23;;;;;;;;;;2079460;28;20179;-61
2020/12/16 02:52:58;;;;;;;113.83;51.17;;;;;;;;;;2071536;28;20169;-59
2020/12/16 02:54:00;;;;;;;114.10;50.10;;;;;;;;;;2078650;28;20181;-60
2020/12/16 02:55:26;;;;;;;110.83;47.77;;;;;;;;;;2084222;28;20585;-61
2020/12/16 02:56:35;;;;;;;112.00;48.87;;;;;;;;;;2082758;28;20191;-61
2020/12/16 02:57:40;;;;;;;117.67;51.50;;;;;;;;;;2080054;28;20738;-62
2020/12/16 02:58:44;;;;;;;115.40;49.73;;;;;;;;;;2073105;28;20235;-60
2020/12/16 02:59:53;;;;;;;116.57;48.00;;;;;;;;;;2083637;28;20173;-62
2020/12/16 03:01:14;;;;;;;109.20;45.73;;;;;;;;;;2090031;28;20198;-61
2020/12/16 03:02:42;;;;;;;107.03;44.23;;;;;;;;;;2090006;28;20170;-61
2020/12/16 03:03:57;;;;;;;106.67;44.70;;;;;;;;;;2083707;28;20199;-61
2020/12/16 03:05:30;;;;;;;102.30;42.10;;;;;;;;;;2062293;28;20188;-61
2020/12/16 03:06:30;;;;;;;92.60;42.93;;;;;;;;;;2080263;28;20164;-64
2020/12/16 03:07:36;;;;;;;104.73;45.63;;;;;;;;;;2064794;28;20269;-61
2020/12/16 03:08:38;;;;;;;107.67;45.63;;;;;;;;;;2065243;28;20217;-61
2020/12/16 03:09:42;;;;;;;109.50;46.20;;;;;;;;;;2073924;28;20251;-62
2020/12/16 03:10:43;;;;;;;84.13;41.73;;;;;;;;;;2081183;28;20188;-61
2020/12/16 03:11:43;;;;;;;88.90;44.47;;;;;;;;;;2060224;28;20175;-60
2020/12/16 03:12:44;;;;;;;97.50;42.00;;;;;;;;;;2080343;28;20218;-59
2020/12/16 03:13:44;;;;;;;87.57;42.67;;;;;;;;;;2073425;28;20197;-62
2020/12/16 03:14:45;;;;;;;85.13;41.90;;;;;;;;;;2075408;28;20173;-62
2020/12/16 03:15:46;;;;;;;80.60;38.87;;;;;;;;;;2074198;28;20912;-61
2020/12/16 03:16:46;;;;;;;77.83;38.07;;;;;;;;;;2075483;28;20215;-62
2020/12/16 03:17:54;;;;;;;80.73;37.20;;;;;;;;;;2075852;28;20201;-61
2020/12/16 03:18:54;;;;;;;76.43;36.90;;;;;;;;;;2082642;28;20161;-59
2020/12/16 03:19:55;;;;;;;78.33;38.87;;;;;;;;;;2071149;28;20173;-61
2020/12/16 03:20:56;;;;;;;80.10;38.97;;;;;;;;;;2085414;28;20200;-61
2020/12/16 03:21:56;;;;;;;87.27;38.93;;;;;;;;;;2081680;28;20192;-59
2020/12/16 03:23:16;;;;;;;69.67;35.87;;;;;;;;;;2082111;28;20811;-60
2020/12/16 03:24:35;;;;;;;73.27;38.40;;;;;;;;;;2089458;28;20606;-60
2020/12/16 03:25:44;;;;;;;73.57;37.00;;;;;;;;;;2082852;28;20203;-61
2020/12/16 03:27:03;;;;;;;73.20;37.67;;;;;;;;;;2091398;28;20583;-62
2020/12/16 03:28:12;;;;;;;71.17;36.30;;;;;;;;;;2083818;28;20698;-62
2020/12/16 03:29:22;;;;;;;84.20;40.37;;;;;;;;;;2083167;28;20176;-62
2020/12/16 03:30:34;;;;;;;72.43;37.27;;;;;;;;;;2080421;28;20238;-62
2020/12/16 03:31:58;;;;;;;83.57;39.80;;;;;;;;;;2084610;28;20237;-62
2020/12/16 03:33:21;;;;;;;80.10;38.87;;;;;;;;;;2085717;28;20163;-61
2020/12/16 03:34:40;;;;;;;81.07;38.27;;;;;;;;;;2084836;28;20188;-61
2020/12/16 03:35:47;;;;;;;71.87;36.57;;;;;;;;;;2074318;28;20259;-60
2020/12/16 03:36:49;;;;;;;70.30;35.90;;;;;;;;;;2067910;28;20686;-62
2020/12/16 03:37:50;;;;;;;84.57;40.60;;;;;;;;;;2071111;28;20184;-60
2020/12/16 03:38:53;;;;;;;80.73;38.30;;;;;;;;;;2068708;28;20169;-60
2020/12/16 03:39:54;;;;;;;69.10;36.50;;;;;;;;;;2084283;28;20183;-62
2020/12/16 03:41:01;;;;;;;79.07;39.97;;;;;;;;;;2088417;28;20195;-61
2020/12/16 03:42:05;;;;;;;88.90;41.07;;;;;;;;;;2086065;28;20171;-63
2020/12/16 03:43:07;;;;;;;86.00;42.23;;;;;;;;;;2079912;28;20227;-61
2020/12/16 03:44:08;;;;;;;84.57;40.73;;;;;;;;;;2075195;28;20734;-60
2020/12/16 03:45:14;;;;;;;80.03;37.67;;;;;;;;;;2075906;28;20199;-61
2020/12/16 03:46:17;;;;;;;82.80;40.03;;;;;;;;;;2083073;28;20258;-60
2020/12/16 03:47:18;;;;;;;86.03;40.83;;;;;;;;;;2082105;28;20255;-60
2020/12/16 03:48:21;;;;;;;74.60;37.90;;;;;;;;;;2083396;28;20177;-64
2020/12/16 03:49:21;;;;;;;75.70;37.97;;;;;;;;;;2082934;28;20172;-61
2020/12/16 03:50:22;;;;;;;84.40;40.50;;;;;;;;;;2074507;28;20215;-61
2020/12/16 03:51:24;;;;;;;74.70;38.73;;;;;;;;;;2088841;28;20297;-59
2020/12/16 03:52:30;;;;;;;81.87;38.60;;;;;;;;;;2076875;28;20173;-61
2020/12/16 03:53:42;;;;;;;79.00;36.07;;;;;;;;;;2084430;28;20161;-60
2020/12/16 03:55:07;;;;;;;69.37;35.80;;;;;;;;;;2085418;28;20262;-62
2020/12/16 03:56:21;;;;;;;66.93;36.13;;;;;;;;;;2075966;28;20173;-63
2020/12/16 03:57:44;;;;;;;75.67;37.23;;;;;;;;;;2077199;28;20256;-60
2020/12/16 03:59:05;;;;;;;69.43;35.63;;;;;;;;;;2079541;28;20768;-61
2020/12/16 04:00:25;;;;;;;73.63;34.53;;;;;;;;;;2077957;28;20208;-63
2020/12/16 04:01:31;;;;;;;83.27;36.53;;;;;;;;;;2075457;28;20724;-62
2020/12/16 04:02:32;;;;;;;86.70;37.47;;;;;;;;;;2079987;28;20183;-61
2020/12/16 04:03:43;;;;;;;70.93;35.83;;;;;;;;;;2084505;28;20156;-60
2020/12/16 04:04:53;;;;;;;65.77;34.57;;;;;;;;;;2085330;28;20172;-61
2020/12/16 04:05:54;;;;;;;72.43;35.93;;;;;;;;;;2092148;28;20199;-61
2020/12/16 04:06:55;;;;;;;72.57;36.90;;;;;;;;;;2083578;28;20196;-59
2020/12/16 04:07:56;;;;;;;75.37;37.53;;;;;;;;;;2071864;28;20183;-60
2020/12/16 04:09:15;;;;;;;71.67;34.77;;;;;;;;;;2087136;28;20628;-60
2020/12/16 04:10:20;;;;;;;69.20;34.80;;;;;;;;;;2085125;28;20188;-62
2020/12/16 04:11:21;;;;;;;76.77;37.53;;;;;;;;;;2068680;28;20177;-60
2020/12/16 04:12:28;;;;;;;81.53;38.67;;;;;;;;;;2068838;28;20668;-60
2020/12/16 04:13:28;;;;;;;81.43;38.60;;;;;;;;;;2077497;28;20180;-61
2020/12/16 04:14:29;;;;;;;77.80;38.37;;;;;;;;;;2075920;28;20203;-60
2020/12/16 04:15:29;;;;;;;76.27;37.50;;;;;;;;;;2075166;28;20224;-61
2020/12/16 04:16:30;;;;;;;75.30;37.30;;;;;;;;;;2075872;28;20219;-62
2020/12/16 04:17:38;;;;;;;65.37;34.57;;;;;;;;;;2076138;28;20241;-62
2020/12/16 04:18:47;;;;;;;75.83;36.70;;;;;;;;;;2077075;28;20173;-62
2020/12/16 04:19:48;;;;;;;67.03;35.10;;;;;;;;;;2083622;28;20183;-61
2020/12/16 04:20:48;;;;;;;67.97;32.87;;;;;;;;;;2083705;28;20192;-62
2020/12/16 04:21:53;;;;;;;64.97;31.90;;;;;;;;;;2083628;28;20651;-61
2020/12/16 04:22:55;;;;;;;75.53;35.90;;;;;;;;;;2076625;28;20173;-59
2020/12/16 04:23:56;;;;;;;67.37;32.53;;;;;;;;;;2083722;28;20183;-62
2020/12/16 04:25:12;;;;;;;70.37;33.63;;;;;;;;;;2070231;28;20182;-62
2020/12/16 04:26:14;;;;;;;62.77;31.13;;;;;;;;;;2070057;28;20173;-61
2020/12/16 04:27:17;;;;;;;63.60;33.10;;;;;;;;;;2083329;28;20196;-61
2020/12/16 04:28:17;;;;;;;62.40;31.30;;;;;;;;;;2076550;28;20181;-60
2020/12/16 04:29:17;;;;;;;58.47;28.93;;;;;;;;;;2087970;28;20271;-59
2020/12/16 04:30:18;;;;;;;54.93;29.17;;;;;;;;;;2071417;28;20319;-61
2020/12/16 04:31:25;;;;;;;49.77;26.63;;;;;;;;;;2070805;28;20173;-62
2020/12/16 04:32:27;;;;;;;56.33;27.03;;;;;;;;;;2077133;28;20204;-62
2020/12/16 04:33:27;;;;;;;59.27;30.50;;;;;;;;;;2093536;28;20159;-63
2020/12/16 04:34:28;;;;;;;57.87;31.30;;;;;;;;;;2087445;28;20234;-61
2020/12/16 04:35:29;;;;;;;61.60;30.33;;;;;;;;;;2077111;28;20177;-61
2020/12/16 04:36:30;;;;;;;61.27;31.80;;;;;;;;;;2078205;28;20661;-62
2020/12/16 04:37:30;;;;;;;67.07;31.47;;;;;;;;;;2083560;28;20327;-60
2020/12/16 04:38:34;;;;;;;56.87;30.33;;;;;;;;;;2093565;28;20206;-62
2020/12/16 04:39:35;;;;;;;58.90;29.53;;;;;;;;;;2086295;28;20173;-62
2020/12/16 04:40:37;;;;;;;54.17;30.73;;;;;;;;;;2078476;28;20754;-62
2020/12/16 04:41:44;;;;;;;57.97;30.70;;;;;;;;;;2076030;28;20651;-62
2020/12/16 04:43:00;;;;;;;56.20;29.03;;;;;;;;;;2075471;28;20260;-60
2020/12/16 04:44:02;;;;;;;55.80;26.27;;;;;;;;;;2075626;28;20168;-60
2020/12/16 04:45:02;;;;;;;48.30;27.93;;;;;;;;;;2067717;28;20192;-62
2020/12/16 04:46:05;;;;;;;50.77;28.07;;;;;;;;;;2072510;28;20165;-64
2020/12/16 04:47:06;;;;;;;54.20;30.10;;;;;;;;;;2079994;28;20215;-61
2020/12/16 04:48:15;;;;;;;66.77;32.23;;;;;;;;;;2072968;28;20252;-62
2020/12/16 04:49:23;;;;;;;64.50;32.20;;;;;;;;;;2069578;28;20182;-61
2020/12/16 04:50:27;;;;;;;78.97;35.63;;;;;;;;;;2072401;28;20188;-60
2020/12/16 04:51:33;;;;;;;79.97;36.03;;;;;;;;;;2074917;28;20181;-62
2020/12/16 04:52:35;;;;;;;102.40;43.70;;;;;;;;;;2081130;28;20200;-62
2020/12/16 04:53:45;;;;;;;93.50;42.03;;;;;;;;;;2084028;28;21106;-61
2020/12/16 04:54:54;;;;;;;78.43;39.33;;;;;;;;;;2084926;28;20198;-60
2020/12/16 04:56:00;;;;;;;91.57;43.47;;;;;;;;;;2080263;28;20177;-60
2020/12/16 04:57:23;;;;;;;93.73;40.27;;;;;;;;;;2077560;28;20192;-60
2020/12/16 04:58:25;;;;;;;102.77;45.20;;;;;;;;;;2084248;28;20186;-61
2020/12/16 04:59:26;;;;;;;107.10;43.77;;;;;;;;;;2065750;28;20178;-61
2020/12/16 05:00:36;;;;;;;110.97;44.90;;;;;;;;;;2076278;28;20292;-61
2020/12/16 05:01:44;;;;;;;106.27;42.17;;;;;;;;;;2083689;28;20188;-61
2020/12/16 05:03:00;;;;;;;99.57;42.10;;;;;;;;;;2091603;28;20171;-62
2020/12/16 05:04:23;;;;;;;94.70;42.63;;;;;;;;;;2086838;28;20250;-61
2020/12/16 05:05:27;;;;;;;108.37;43.70;;;;;;;;;;2083373;28;20667;-62
2020/12/16 05:06:36;;;;;;;96.20;42.93;;;;;;;;;;2082913;28;20228;-61
2020/12/16 05:07:36;;;;;;;114.40;46.13;;;;;;;;;;2086856;28;20187;-60
2020/12/16 05:08:37;;;;;;;104.17;44.70;;;;;;;;;;2084788;28;20175;-62
2020/12/16 05:09:46;;;;;;;109.33;46.33;;;;;;;;;;2086407;28;20180;-60
2020/12/16 05:10:49;;;;;;;108.17;47.37;;;;;;;;;;2076357;28;20189;-61
2020/12/16 05:11:50;;;;;;;126.03;50.43;;;;;;;;;;2091011;28;20664;-61
2020/12/16 05:13:00;;;;;;;132.47;50.63;;;;;;;;;;2089224;28;20225;-61
2020/12/16 05:14:08;;;;;;;116.03;49.07;;;;;;;;;;2085679;28;20168;-62
2020/12/16 05:15:20;;;;;;;132.50;51.63;;;;;;;;;;2090672;28;20597;-61
2020/12/16 05:16:21;;;;;;;126.23;53.80;;;;;;;;;;2091338;28;20179;-60
2020/12/16 05:17:21;;;;;;;151.40;57.63;;;;;;;;;;2081428;28;20180;-61
2020/12/16 05:18:40;;;;;;;136.77;53.83;;;;;;;;;;2083699;28;20671;-61
2020/12/16 05:19:42;;;;;;;158.33;59.87;;;;;;;;;;2074901;28;20197;-61
2020/12/16 05:21:08;;;;;;;148.03;58.10;;;;;;;;;;2082819;28;20311;-60
2020/12/16 05:22:11;;;;;;;131.10;53.97;;;;;;;;;;2088443;28;20223;-61
2020/12/16 05:23:12;;;;;;;151.63;58.97;;;;;;;;;;2090596;28;20178;-60
2020/12/16 05:24:12;;;;;;;147.47;57.60;;;;;;;;;;2090962;28;20542;-62
2020/12/16 05:25:12;;;;;;;201.03;66.47;;;;;;;;;;2090738;28;20183;-61
2020/12/16 05:26:12;;;;;;;165.43;62.57;;;;;;;;;;2090930;28;20550;-62
2020/12/16 05:27:17;;;;;;;167.13;60.53;;;;;;;;;;2089746;28;20253;-62
2020/12/16 05:28:24;;;;;;;160.23;57.97;;;;;;;;;;2090910;28;20191;-64
2020/12/16 05:29:26;;;;;;;229.03;70.63;;;;;;;;;;2087328;28;20187;-61
2020/12/16 05:30:26;;;;;;;164.93;58.93;;;;;;;;;;2088531;28;20211;-62
2020/12/16 05:31:28;;;;;;;156.47;57.80;;;;;;;;;;2089004;28;20289;-62
2020/12/16 05:32:30;;;;;;;180.97;64.77;;;;;;;;;;2077361;28;20177;-61
2020/12/16 05:33:30;;;;;;;187.73;63.63;;;;;;;;;;2089862;28;20172;-63
2020/12/16 05:34:31;;;;;;;163.33;62.47;;;;;;;;;;2087961;28;20690;-62
2020/12/16 05:35:31;;;;;;;187.77;64.93;;;;;;;;;;2089739;28;20647;-61
2020/12/16 05:36:31;;;;;;;236.40;74.10;;;;;;;;;;2089805;28;20272;-62
2020/12/16 05:37:36;;;;;;;156.30;59.77;;;;;;;;;;2090387;28;20293;-60
2020/12/16 05:38:52;;;;;;;223.43;70.90;;;;;;;;;;2085789;28;20188;-61
2020/12/16 05:39:56;;;;;;;197.50;67.93;;;;;;;;;;2078971;28;20175;-62
2020/12/16 05:41:05;;;;;;;241.87;76.77;;;;;;;;;;2084563;28;20204;-63
2020/12/16 05:42:06;;;;;;;189.40;69.13;;;;;;;;;;2085154;28;20698;-63
2020/12/16 05:43:06;;;;;;;204.17;69.57;;;;;;;;;;2080793;28;20204;-62
2020/12/16 05:44:16;;;;;;;195.03;66.13;;;;;;;;;;2085918;28;20183;-61
2020/12/16 05:45:18;;;;;;;179.20;65.97;;;;;;;;;;2083976;28;20179;-61
2020/12/16 05:46:25;;;;;;;179.57;65.17;;;;;;;;;;2075766;28;20261;-59
2020/12/16 05:47:25;;;;;;;163.43;60.87;;;;;;;;;;2085826;28;20199;-57
2020/12/16 05:48:29;;;;;;;164.23;63.88;;;;;;;;;;2084626;28;20633;-61
2020/12/16 05:49:30;;;;;;;187.98;66.68;;;;;;;;;;2088112;28;20184;-61
2020/12/16 05:50:31;;;;;;;241.40;78.43;;;;;;;;;;2089936;28;20234;-58
2020/12/16 05:51:32;;;;;;;164.70;61.03;;;;;;;;;;2090589;28;20180;-61
2020/12/16 05:52:32;;;;;;;182.10;68.07;;;;;;;;;;2090497;28;20282;-61
2020/12/16 05:53:32;;;;;;;182.20;65.90;;;;;;;;;;2090143;28;20233;-61
2020/12/16 05:54:35;;;;;;;177.97;65.43;;;;;;;;;;2090525;28;20183;-63
2020/12/16 05:55:35;;;;;;;159.97;60.83;;;;;;;;;;2089252;28;20210;-61
2020/12/16 05:56:35;;;;;;;163.00;60.90;;;;;;;;;;2090368;28;20218;-60
2020/12/16 05:57:36;;;;;;;164.80;60.23;;;;;;;;;;2088575;28;20200;-61
2020/12/16 05:58:36;;;;;;;159.27;60.63;;;;;;;;;;2091147;28;20218;-60
2020/12/16 05:59:36;;;;;;;173.70;60.83;;;;;;;;;;2081680;28;20188;-59
2020/12/16 06:00:50;;;;;;;141.10;54.30;;;;;;;;;;2079153;28;20291;-60
2020/12/16 06:01:51;;;;;;;154.23;57.15;;;;;;;;;;2083719;28;20188;-61
2020/12/16 06:02:54;;;;;;;177.20;62.00;;;;;;;;;;2090211;28;20265;-61
2020/12/16 06:03:54;;;;;;;169.00;61.42;;;;;;;;;;2090069;28;20742;-60
2020/12/16 06:04:56;;;;;;;142.07;54.10;;;;;;;;;;2089900;28;20188;-61
2020/12/16 06:05:58;;;;;;;143.50;54.73;;;;;;;;;;2085945;28;20215;-62
2020/12/16 06:06:58;;;;;;;180.53;61.40;;;;;;;;;;2090344;28;20199;-59
2020/12/16 06:07:58;;;;;;;124.63;51.13;;;;;;;;;;2083792;28;20183;-59
2020/12/16 06:08:59;;;;;;;123.67;51.67;;;;;;;;;;2089652;28;20178;-61
2020/12/16 06:09:59;;;;;;;149.77;54.03;;;;;;;;;;2090450;28;20163;-61
2020/12/16 06:11:00;;;;;;;134.57;51.43;;;;;;;;;;2090062;28;20212;-59
2020/12/16 06:12:06;;;;;;;130.90;52.13;;;;;;;;;;2085102;28;20641;-61
2020/12/16 06:13:09;;;;;;;125.93;48.97;;;;;;;;;;2073782;28;20180;-59
2020/12/16 06:14:09;;;;;;;175.20;55.07;;;;;;;;;;2072258;28;20551;-60